createdAt,value
2022-09-15T00:02:53.098Z,101325.22
2022-09-15T00:05:58.011Z,101305.50
2022-09-15T00:09:02.498Z,101327.47
2022-09-15T00:12:07.391Z,101276.19
2022-09-15T00:15:15.716Z,101312.72
2022-09-15T00:18:20.390Z,101290.81
2022-09-15T00:21:28.333Z,101307.16
2022-09-15T00:24:33.678Z,101280.13
2022-09-15T00:27:38.487Z,101321.56
2022-09-15T00:30:48.664Z,101284.28
2022-09-15T00:33:56.296Z,101303.72
2022-09-15T00:37:01.100Z,101258.53
2022-09-15T00:40:06.147Z,101273.72
2022-09-15T00:43:12.880Z,101282.06
2022-09-15T00:46:20.038Z,101265.50
2022-09-15T00:49:32.683Z,101257.53
2022-09-15T00:52:53.254Z,101291.31
2022-09-15T00:55:59.028Z,101253.22
2022-09-15T00:59:08.188Z,101287.81
2022-09-15T01:02:29.257Z,101283.03
2022-09-15T01:05:45.569Z,101258.03
2022-09-15T01:08:59.600Z,101273.50
2022-09-15T01:12:05.155Z,101233.88
2022-09-15T01:15:10.274Z,101257.50
2022-09-15T01:18:29.985Z,101265.53
2022-09-15T01:21:43.672Z,101260.22
2022-09-15T01:24:57.034Z,101253.00
2022-09-15T01:28:13.678Z,101244.38
2022-09-15T01:32:15.343Z,101240.84
2022-09-15T01:35:40.819Z,101246.78
2022-09-15T01:39:15.057Z,101199.28
2022-09-15T01:42:21.564Z,101231.72
2022-09-15T01:45:33.945Z,101237.44
2022-09-15T01:48:40.980Z,101206.88
2022-09-15T01:51:47.793Z,101209.53
2022-09-15T01:54:56.914Z,101235.06
2022-09-15T01:58:01.455Z,101205.66
2022-09-15T02:01:50.540Z,101195.38
2022-09-15T02:05:12.209Z,101193.56
2022-09-15T02:08:55.565Z,101224.34
2022-09-15T02:12:21.879Z,101221.16
2022-09-15T02:15:49.340Z,101202.75
2022-09-15T02:19:27.975Z,101220.34
2022-09-15T02:22:35.916Z,101181.69
2022-09-15T02:25:48.209Z,101169.09
2022-09-15T02:28:55.412Z,101158.06
2022-09-15T02:32:07.002Z,101156.31
2022-09-15T02:35:13.553Z,101168.22
2022-09-15T02:38:18.221Z,101176.38
2022-09-15T02:41:22.832Z,101165.97
2022-09-15T02:44:27.967Z,101147.78
2022-09-15T02:47:32.965Z,101158.47
2022-09-15T02:50:39.288Z,101154.44
2022-09-15T02:53:46.519Z,101138.09
2022-09-15T02:56:51.243Z,101129.69
2022-09-15T03:00:14.366Z,101169.94
2022-09-15T03:03:19.829Z,101112.00
2022-09-15T03:06:24.861Z,101137.72
2022-09-15T03:09:29.586Z,101117.00
2022-09-15T03:12:42.298Z,101129.47
2022-09-15T03:15:46.992Z,101126.91
2022-09-15T03:18:52.593Z,101149.00
2022-09-15T03:21:57.409Z,101122.47
2022-09-15T03:25:02.201Z,101144.16
2022-09-15T03:28:08.017Z,101143.66
2022-09-15T03:31:13.014Z,101116.97
2022-09-15T03:34:17.897Z,101122.63
2022-09-15T03:37:22.726Z,101109.66
2022-09-15T03:40:27.471Z,101128.81
2022-09-15T03:43:33.790Z,101095.97
2022-09-15T03:46:38.497Z,101115.91
2022-09-15T03:49:43.239Z,101122.25
2022-09-15T03:52:47.719Z,101126.38
2022-09-15T03:55:53.733Z,101123.06
2022-09-15T03:59:00.824Z,101107.69
2022-09-15T04:02:05.503Z,101121.84
2022-09-15T04:05:10.584Z,101112.97
2022-09-15T04:08:15.219Z,101077.19
2022-09-15T04:11:21.733Z,101077.91
2022-09-15T04:14:26.666Z,101105.66
2022-09-15T04:17:31.117Z,101072.94
2022-09-15T04:20:35.728Z,101079.78
2022-09-15T04:23:41.983Z,101112.53
2022-09-15T04:26:46.555Z,101102.91
2022-09-15T04:29:54.283Z,101092.66
2022-09-15T04:32:58.889Z,101087.78
2022-09-15T04:36:05.828Z,101104.31
2022-09-15T04:39:10.384Z,101080.47
2022-09-15T04:42:15.020Z,101053.22
2022-09-15T04:45:19.718Z,101076.31
2022-09-15T04:48:25.038Z,101088.22
2022-09-15T04:51:29.243Z,101082.56
2022-09-15T04:54:36.576Z,101070.81
2022-09-15T04:57:41.100Z,101068.41
2022-09-15T05:00:45.748Z,101059.28
2022-09-15T05:03:50.910Z,101063.09
2022-09-15T05:06:55.763Z,101050.75
2022-09-15T05:10:00.234Z,101055.44
2022-09-15T05:13:04.817Z,101054.00
2022-09-15T05:16:13.215Z,101035.13
2022-09-15T05:19:18.135Z,101029.03
2022-09-15T05:22:22.700Z,101054.25
2022-09-15T05:25:27.036Z,101007.63
2022-09-15T05:28:34.222Z,101038.66
2022-09-15T05:31:38.859Z,101002.97
2022-09-15T05:34:43.492Z,101019.81
2022-09-15T05:37:47.956Z,101008.25
2022-09-15T05:40:53.300Z,101027.47
2022-09-15T05:43:59.669Z,101030.88
2022-09-15T05:47:04.195Z,101037.28
2022-09-15T05:50:08.795Z,101002.28
2022-09-15T05:53:13.343Z,101008.00
2022-09-15T05:56:19.423Z,101035.22
2022-09-15T05:59:24.307Z,101024.19
2022-09-15T06:02:28.732Z,101005.16
2022-09-15T06:05:33.134Z,101014.78
2022-09-15T06:08:44.385Z,101005.44
2022-09-15T06:11:49.425Z,101034.53
2022-09-15T06:14:54.211Z,101012.03
2022-09-15T06:17:59.089Z,101006.47
2022-09-15T06:21:06.804Z,101006.03
2022-09-15T06:24:13.722Z,100982.13
2022-09-15T06:27:19.624Z,100999.75
2022-09-15T06:30:25.922Z,101011.66
2022-09-15T06:33:32.002Z,101028.25
2022-09-15T06:36:39.561Z,101027.47
2022-09-15T06:39:45.165Z,101010.53
2022-09-15T06:42:50.082Z,101002.13
2022-09-15T06:45:55.366Z,100988.19
2022-09-15T06:49:00.020Z,101017.81
2022-09-15T06:52:06.020Z,101017.03
2022-09-15T06:55:10.764Z,100994.03
2022-09-15T06:58:19.694Z,101007.13
2022-09-15T07:01:32.339Z,101009.84
2022-09-15T07:04:37.930Z,100990.94
2022-09-15T07:07:42.727Z,100980.97
2022-09-15T07:10:47.871Z,101014.53
2022-09-15T07:13:53.024Z,101000.41
2022-09-15T07:16:57.384Z,101037.38
2022-09-15T07:20:03.080Z,101011.19
2022-09-15T07:23:09.043Z,101026.22
2022-09-15T07:26:31.343Z,101024.47
2022-09-15T07:29:37.924Z,101034.44
2022-09-15T07:32:43.028Z,100992.22
2022-09-15T07:35:49.088Z,101008.19
2022-09-15T07:38:54.084Z,101028.38
2022-09-15T07:41:58.963Z,101035.00
2022-09-15T07:45:03.541Z,101015.88
2022-09-15T07:48:08.557Z,101013.38
2022-09-15T07:51:14.061Z,101016.28
2022-09-15T07:54:22.640Z,100989.72
2022-09-15T07:57:28.328Z,101027.25
2022-09-15T08:00:32.840Z,101023.88
2022-09-15T08:03:42.912Z,100998.09
2022-09-15T08:06:48.730Z,100992.81
2022-09-15T08:09:53.459Z,100983.81
2022-09-15T08:13:00.196Z,100985.31
2022-09-15T08:16:14.636Z,100999.69
2022-09-15T08:19:21.585Z,100988.78
2022-09-15T08:22:25.989Z,101006.09
2022-09-15T08:25:31.876Z,100979.28
2022-09-15T08:28:36.944Z,100983.78
2022-09-15T08:31:42.052Z,101006.78
2022-09-15T08:34:46.817Z,100992.78
2022-09-15T08:37:54.253Z,101012.88
2022-09-15T08:41:20.331Z,100989.31
2022-09-15T08:44:53.041Z,101009.13
2022-09-15T08:48:05.815Z,101000.22
2022-09-15T08:51:19.308Z,100991.75
2022-09-15T08:54:28.484Z,101016.78
2022-09-15T08:57:33.373Z,100990.56
2022-09-15T09:00:37.937Z,100994.19
2022-09-15T09:03:49.560Z,100993.13
2022-09-15T09:07:29.247Z,101032.59
2022-09-15T09:10:42.502Z,101041.69
2022-09-15T09:14:09.346Z,101053.66
2022-09-15T09:17:39.129Z,101031.22
2022-09-15T09:21:04.985Z,101044.19
2022-09-15T09:24:38.124Z,101028.09
2022-09-15T09:27:42.681Z,101027.25
2022-09-15T09:30:47.477Z,101043.72
2022-09-15T09:34:27.061Z,101042.31
2022-09-15T09:37:32.367Z,101041.53
2022-09-15T09:40:37.916Z,101020.63
2022-09-15T09:43:45.661Z,101034.13
2022-09-15T09:46:51.584Z,101028.06
2022-09-15T09:49:56.941Z,101031.44
2022-09-15T09:53:01.668Z,101007.75
2022-09-15T09:56:28.352Z,101015.38
2022-09-15T09:59:44.908Z,101040.38
2022-09-15T10:02:49.849Z,101030.19
2022-09-15T10:06:08.176Z,101035.03
2022-09-15T10:09:18.949Z,101042.03
2022-09-15T10:12:35.909Z,101055.78
2022-09-15T10:15:42.772Z,101048.81
2022-09-15T10:18:54.421Z,101042.56
2022-09-15T10:22:01.331Z,101047.28
2022-09-15T10:25:49.246Z,101041.44
2022-09-15T10:29:15.077Z,101052.50
2022-09-15T10:32:25.668Z,101050.56
2022-09-15T10:35:34.486Z,101048.19
2022-09-15T10:38:50.452Z,101041.63
2022-09-15T10:42:28.705Z,101018.25
2022-09-15T10:45:39.711Z,101034.97
2022-09-15T10:49:01.462Z,101034.84
2022-09-15T10:52:18.480Z,101058.94
2022-09-15T10:55:58.893Z,101027.81
2022-09-15T10:59:07.385Z,101055.72
2022-09-15T11:02:15.387Z,101064.72
2022-09-15T11:05:40.528Z,101035.97
2022-09-15T11:08:54.448Z,101065.63
2022-09-15T11:12:13.515Z,101075.09
2022-09-15T11:15:48.915Z,101076.97
2022-09-15T11:19:05.877Z,101084.06
2022-09-15T11:22:14.235Z,101083.03
2022-09-15T11:25:29.507Z,101074.28
2022-09-15T11:28:50.296Z,101052.50
2022-09-15T11:32:05.284Z,101036.69
2022-09-15T11:35:43.206Z,101085.06
2022-09-15T11:39:14.641Z,101068.28
2022-09-15T11:42:26.128Z,101068.41
2022-09-15T11:45:36.665Z,101092.69
2022-09-15T11:49:04.908Z,101071.09
2022-09-15T11:52:47.278Z,101095.22
2022-09-15T11:56:11.197Z,101053.97
2022-09-15T11:59:24.243Z,101087.25
2022-09-15T12:02:49.822Z,101043.28
2022-09-15T12:06:32.230Z,101078.94
2022-09-15T12:09:36.912Z,101042.41
2022-09-15T12:12:45.080Z,101078.22
2022-09-15T12:15:50.987Z,101081.06
2022-09-15T12:19:15.884Z,101076.97
2022-09-15T12:22:24.944Z,101082.28
2022-09-15T12:25:44.132Z,101061.75
2022-09-15T12:28:51.892Z,101066.38
2022-09-15T12:32:21.602Z,101074.81
2022-09-15T12:35:27.325Z,101063.16
2022-09-15T12:38:32.360Z,101046.34
2022-09-15T12:41:37.315Z,101043.72
2022-09-15T12:44:58.207Z,101036.63
2022-09-15T12:48:13.766Z,101074.50
2022-09-15T12:51:27.400Z,101065.91
2022-09-15T12:54:34.695Z,101072.66
2022-09-15T12:57:39.632Z,101076.94
2022-09-15T13:01:16.935Z,101055.69
2022-09-15T13:04:26.748Z,101092.50
2022-09-15T13:07:37.267Z,101079.72
2022-09-15T13:11:00.610Z,101090.31
2022-09-15T13:14:07.567Z,101094.41
2022-09-15T13:17:17.544Z,101091.81
2022-09-15T13:20:31.236Z,101078.66
2022-09-15T13:23:41.710Z,101067.69
2022-09-15T13:26:53.029Z,101047.09
2022-09-15T13:30:34.466Z,101089.28
2022-09-15T13:38:23.975Z,101071.84
2022-09-15T13:42:11.791Z,101080.59
2022-09-15T13:45:43.003Z,101093.56
2022-09-15T13:48:56.987Z,101080.09
2022-09-15T13:52:11.414Z,101007.34
2022-09-15T13:55:20.530Z,101055.13
2022-09-15T14:01:53.167Z,101083.41
2022-09-15T14:04:58.362Z,101069.13
2022-09-15T14:08:34.393Z,101051.06
2022-09-15T14:11:40.168Z,101003.28
2022-09-15T14:14:54.515Z,101029.50
2022-09-15T14:17:59.525Z,100993.50
2022-09-15T14:21:06.971Z,101052.09
2022-09-15T14:24:22.176Z,101063.44
2022-09-15T14:27:33.506Z,101071.09
2022-09-15T14:30:39.561Z,101033.84
2022-09-15T14:33:46.822Z,101027.69
2022-09-15T14:37:09.618Z,101066.72
2022-09-15T14:40:26.491Z,101045.78
2022-09-15T14:43:36.859Z,101031.28
2022-09-15T14:46:41.555Z,100998.56
2022-09-15T14:49:47.408Z,101016.41
2022-09-15T14:53:08.083Z,101089.88
2022-09-15T14:56:27.769Z,101023.88
2022-09-15T14:59:36.350Z,101000.19
2022-09-15T15:02:57.603Z,101022.66
2022-09-15T15:06:29.983Z,101040.84
2022-09-15T15:09:49.762Z,100974.41
2022-09-15T15:12:58.848Z,100976.09
2022-09-15T15:16:11.090Z,100978.91
2022-09-15T15:19:43.485Z,101054.66
2022-09-15T15:22:49.428Z,101008.91
2022-09-15T15:25:55.034Z,100986.94
2022-09-15T15:28:59.988Z,101051.41
2022-09-15T15:32:14.961Z,101049.97
2022-09-15T15:35:20.720Z,101000.50
2022-09-15T15:38:27.942Z,100972.63
2022-09-15T15:41:40.239Z,101036.66
2022-09-15T15:45:04.575Z,100967.78
2022-09-15T15:48:11.162Z,100964.13
2022-09-15T15:51:16.947Z,100996.19
2022-09-15T15:54:21.707Z,101036.78
2022-09-15T15:57:31.861Z,100972.63
2022-09-15T16:00:52.089Z,101027.53
2022-09-15T16:03:56.871Z,101034.13
2022-09-15T16:07:03.941Z,100944.56
2022-09-15T16:10:10.189Z,100961.09
2022-09-15T16:13:17.603Z,101005.03
2022-09-15T16:16:28.247Z,100940.59
2022-09-15T16:19:33.291Z,100938.00
2022-09-15T16:22:40.029Z,100952.88
2022-09-15T16:25:44.847Z,101004.53
2022-09-15T16:28:49.605Z,100939.28
2022-09-15T16:31:54.348Z,100904.91
2022-09-15T16:34:59.118Z,100952.19
2022-09-15T16:38:04.127Z,101004.47
2022-09-15T16:41:20.646Z,101027.09
2022-09-15T16:44:25.412Z,100966.56
2022-09-15T16:47:30.335Z,100979.63
2022-09-15T16:50:35.168Z,100965.50
2022-09-15T16:53:40.828Z,100937.75
2022-09-15T16:56:47.057Z,101036.88
2022-09-15T16:59:51.741Z,100972.22
2022-09-15T17:02:56.643Z,100987.03
2022-09-15T17:06:02.818Z,101023.22
2022-09-15T17:09:07.775Z,100924.03
2022-09-15T17:15:42.210Z,100929.28
2022-09-15T17:18:47.873Z,100945.75
2022-09-15T17:21:53.886Z,100974.91
2022-09-15T17:24:58.525Z,100952.75
2022-09-15T17:28:03.587Z,100959.22
2022-09-15T17:31:15.893Z,100999.19
2022-09-15T17:34:21.216Z,100987.84
2022-09-15T17:37:25.742Z,100926.50
2022-09-15T17:40:31.474Z,100953.53
2022-09-15T17:43:36.931Z,100962.84
2022-09-15T17:46:41.807Z,101016.19
2022-09-15T17:49:46.363Z,100995.28
2022-09-15T17:52:51.977Z,100962.81
2022-09-15T17:55:56.912Z,101010.13
2022-09-15T17:59:02.002Z,101009.66
2022-09-15T18:02:18.865Z,100933.91
2022-09-15T18:05:32.955Z,100955.81
2022-09-15T18:08:38.150Z,100950.69
2022-09-15T18:11:43.156Z,101014.53
2022-09-15T18:14:48.369Z,100950.22
2022-09-15T18:17:57.996Z,100907.41
2022-09-15T18:21:03.245Z,100933.25
2022-09-15T18:24:08.898Z,100968.06
2022-09-15T18:27:13.800Z,100945.09
2022-09-15T18:30:20.271Z,100915.72
2022-09-15T18:33:51.950Z,100953.56
2022-09-15T18:36:57.720Z,100985.00
2022-09-15T18:40:03.178Z,101019.22
2022-09-15T18:43:07.784Z,101010.06
2022-09-15T18:46:12.629Z,100869.88
2022-09-15T18:49:17.480Z,100925.06
2022-09-15T18:52:22.519Z,101003.97
2022-09-15T18:55:27.446Z,100961.47
2022-09-15T18:58:32.367Z,100931.00
2022-09-15T19:01:37.355Z,101003.47
2022-09-15T19:04:43.623Z,100998.25
2022-09-15T19:07:48.516Z,100919.06
2022-09-15T19:11:03.175Z,100940.88
2022-09-15T19:14:08.631Z,100934.25
2022-09-15T19:17:13.765Z,100995.00
2022-09-15T19:20:18.539Z,100969.69
2022-09-15T19:23:23.436Z,100899.41
2022-09-15T19:26:30.494Z,100922.78
2022-09-15T19:29:39.779Z,100880.84
2022-09-15T19:32:44.830Z,100925.34
2022-09-15T19:35:59.994Z,101007.19
2022-09-15T19:39:12.992Z,100933.09
2022-09-15T19:42:18.337Z,100980.91
2022-09-15T19:45:22.740Z,101001.66
2022-09-15T19:48:27.717Z,100994.59
2022-09-15T19:51:32.469Z,100940.03
2022-09-15T19:54:37.276Z,100952.41
2022-09-15T19:57:43.349Z,100943.25
2022-09-15T20:00:56.590Z,100958.13
2022-09-15T20:04:02.812Z,100941.69
2022-09-15T20:07:08.052Z,100974.09
2022-09-15T20:10:13.457Z,100971.44
2022-09-15T20:13:19.822Z,100981.69
2022-09-15T20:16:25.664Z,100944.84
2022-09-15T20:19:31.069Z,100982.75
2022-09-15T20:22:35.722Z,100939.28
2022-09-15T20:25:41.126Z,100974.84
2022-09-15T20:28:46.126Z,101026.53
2022-09-15T20:31:51.292Z,100921.53
2022-09-15T20:34:56.198Z,101006.38
2022-09-15T20:38:00.992Z,100973.25
2022-09-15T20:41:08.540Z,100948.09
2022-09-15T20:44:13.381Z,101033.91
2022-09-15T20:47:18.211Z,101012.09
2022-09-15T20:50:23.307Z,100940.44
2022-09-15T20:53:28.212Z,100984.94
2022-09-15T20:56:35.720Z,100987.63
2022-09-15T20:59:40.466Z,100983.06
2022-09-15T21:02:45.002Z,100954.03
2022-09-15T21:05:49.966Z,101020.25
2022-09-15T21:08:56.652Z,101027.94
2022-09-15T21:12:01.800Z,100977.66
2022-09-15T21:15:07.340Z,100986.34
2022-09-15T21:18:12.076Z,101032.63
2022-09-15T21:21:26.758Z,100958.28
2022-09-15T21:24:31.520Z,101012.50
2022-09-15T21:27:36.442Z,101034.75
2022-09-15T21:30:41.556Z,101064.84
2022-09-15T21:33:47.970Z,101048.94
2022-09-15T21:37:00.062Z,100960.78
2022-09-15T21:40:05.486Z,101063.75
2022-09-15T21:43:11.436Z,100962.03
2022-09-15T21:47:04.904Z,101057.00
2022-09-15T21:50:28.331Z,101017.38
2022-09-15T21:53:47.470Z,101063.16
2022-09-15T21:56:56.234Z,101019.53
2022-09-15T22:00:01.046Z,101015.91
2022-09-15T22:03:38.527Z,101065.19
2022-09-15T22:06:43.589Z,100951.38
2022-09-15T22:09:51.713Z,101050.78
2022-09-15T22:12:56.472Z,101063.72
2022-09-15T22:16:03.630Z,101012.88
2022-09-15T22:19:10.824Z,100951.97
2022-09-15T22:22:15.687Z,101068.47
2022-09-15T22:25:24.523Z,101003.97
2022-09-15T22:28:29.263Z,101049.09
2022-09-15T22:31:34.788Z,101060.81
2022-09-15T22:34:39.440Z,101056.75
2022-09-15T22:37:44.331Z,101015.16
2022-09-15T22:40:49.445Z,101067.38
2022-09-15T22:43:54.271Z,101009.69
2022-09-15T22:46:58.948Z,100953.66
2022-09-15T22:50:03.653Z,100990.00
2022-09-15T22:53:08.435Z,100989.28
2022-09-15T22:56:22.396Z,100999.53
2022-09-15T22:59:27.004Z,101037.28
2022-09-15T23:02:31.551Z,100995.97
2022-09-15T23:05:36.210Z,101059.75
2022-09-15T23:08:40.942Z,100996.78
2022-09-15T23:11:45.670Z,101022.28
2022-09-15T23:14:50.465Z,100989.16
2022-09-15T23:17:55.214Z,101017.47
2022-09-15T23:21:06.189Z,100985.50
2022-09-15T23:24:13.326Z,100991.44
2022-09-15T23:27:18.236Z,101008.59
2022-09-15T23:30:23.094Z,100995.56
2022-09-15T23:33:30.277Z,101018.09
2022-09-15T23:36:35.217Z,100973.06
2022-09-15T23:39:39.873Z,100997.44
2022-09-15T23:42:44.960Z,100992.94
2022-09-15T23:45:52.073Z,101032.47
2022-09-15T23:48:57.161Z,101008.69
2022-09-15T23:52:02.201Z,100997.56
2022-09-15T23:55:07.641Z,101011.28
2022-09-15T23:58:13.129Z,101029.56
